createdAt,value
2022-12-06T06:11:25.109Z,7.50
2022-12-06T06:14:15.003Z,7.50
2022-12-06T06:17:03.955Z,7.30
2022-12-06T06:19:53.168Z,7.30
2022-12-06T06:22:43.885Z,7.50
2022-12-06T06:25:32.911Z,7.60
2022-12-06T06:28:24.548Z,7.70
2022-12-06T06:31:13.362Z,7.70
2022-12-06T06:34:02.658Z,7.80
2022-12-06T06:36:51.211Z,7.90
2022-12-06T06:39:40.360Z,8.00
2022-12-06T06:42:29.804Z,7.90
2022-12-06T06:45:26.756Z,7.90
2022-12-06T06:48:18.127Z,7.90
2022-12-06T06:51:09.462Z,7.90
2022-12-06T06:53:58.851Z,7.90
2022-12-06T06:56:48.761Z,7.60
2022-12-06T06:59:37.350Z,7.40
2022-12-06T07:02:28.063Z,7.20
2022-12-06T07:05:17.536Z,7.30
2022-12-06T07:08:07.415Z,7.40
2022-12-06T07:10:56.943Z,7.30
2022-12-06T07:13:52.402Z,7.00
2022-12-06T07:16:41.820Z,7.00
2022-12-06T07:19:32.481Z,7.20
2022-12-06T07:22:22.076Z,7.40
2022-12-06T07:25:11.620Z,7.40
2022-12-06T07:28:00.812Z,7.60
2022-12-06T07:30:49.927Z,7.60
2022-12-06T07:33:40.074Z,7.80
2022-12-06T07:36:32.830Z,7.90
2022-12-06T07:39:21.913Z,8.00
2022-12-06T07:42:29.234Z,8.10
2022-12-06T07:45:18.301Z,8.30
2022-12-06T07:48:08.153Z,8.50
2022-12-06T07:50:57.361Z,8.60
2022-12-06T07:53:48.143Z,8.70
2022-12-06T07:56:37.023Z,8.80
2022-12-06T07:59:26.787Z,9.00
2022-12-06T08:02:21.274Z,9.20
2022-12-06T08:05:11.519Z,9.30
2022-12-06T08:08:01.000Z,9.10
2022-12-06T08:10:51.430Z,8.50
2022-12-06T08:13:40.930Z,8.70
2022-12-06T08:16:30.481Z,8.80
2022-12-06T08:19:19.467Z,9.00
2022-12-06T08:47:43.615Z,9.50
2022-12-06T08:50:32.869Z,9.90
2022-12-06T08:53:21.779Z,9.90
2022-12-06T08:56:11.404Z,9.90
2022-12-06T08:59:01.039Z,10.20
2022-12-06T09:01:52.246Z,10.40
2022-12-06T09:04:41.676Z,10.50
2022-12-06T09:07:30.929Z,10.30
2022-12-06T09:10:20.836Z,10.30
2022-12-06T09:13:09.900Z,10.40
2022-12-06T09:15:59.201Z,10.40
2022-12-06T09:18:51.659Z,10.50
2022-12-06T09:21:43.154Z,10.60
2022-12-06T09:24:32.736Z,10.70
2022-12-06T09:27:22.149Z,10.70
2022-12-06T09:30:12.842Z,10.70
2022-12-06T09:33:01.743Z,10.90
2022-12-06T09:35:53.551Z,11.00
2022-12-06T09:38:45.486Z,11.10
2022-12-06T09:41:52.723Z,11.20
2022-12-06T09:44:58.368Z,11.60
2022-12-06T09:48:14.968Z,12.10
2022-12-06T09:51:18.073Z,12.50
2022-12-06T09:54:19.765Z,12.60
2022-12-06T09:57:14.234Z,12.70
2022-12-06T10:00:11.324Z,12.60
2022-12-06T10:03:36.626Z,12.50
2022-12-06T10:06:33.051Z,12.50
2022-12-06T10:09:36.339Z,12.50
2022-12-06T10:12:38.164Z,12.60
2022-12-06T10:15:41.252Z,12.70
2022-12-06T10:18:38.036Z,12.80
2022-12-06T10:21:39.441Z,12.70
2022-12-06T10:24:42.759Z,12.80
2022-12-06T10:27:38.468Z,12.90
2022-12-06T10:30:28.160Z,13.10
2022-12-06T10:33:23.817Z,13.20
2022-12-06T10:36:17.440Z,13.20
2022-12-06T10:39:17.062Z,13.20
2022-12-06T10:42:12.502Z,13.90
2022-12-06T10:56:53.857Z,13.50
2022-12-06T10:59:51.936Z,13.50
2022-12-06T11:02:47.935Z,13.70
2022-12-06T11:08:32.442Z,13.70
2022-12-06T11:34:48.231Z,14.00
2022-12-06T11:40:37.041Z,14.10
2022-12-06T11:43:29.960Z,14.10
2022-12-06T11:46:19.271Z,14.10
2022-12-06T11:52:10.468Z,14.30
2022-12-06T11:55:02.601Z,14.40
2022-12-06T11:57:55.281Z,14.50
2022-12-06T12:01:03.090Z,14.60
2022-12-06T12:03:52.399Z,14.70
2022-12-06T12:06:43.482Z,14.70
2022-12-06T12:09:36.563Z,14.80
2022-12-06T12:12:48.021Z,14.80
2022-12-06T12:15:38.922Z,14.80
2022-12-06T12:18:31.304Z,14.80
2022-12-06T12:21:31.388Z,14.90
2022-12-06T12:27:59.407Z,14.80
2022-12-06T12:30:54.900Z,14.90
2022-12-06T12:33:44.269Z,14.80
2022-12-06T12:36:33.271Z,14.80
2022-12-06T12:39:29.710Z,14.80
2022-12-06T12:42:31.960Z,14.70
2022-12-06T12:45:22.649Z,14.60
2022-12-06T12:48:24.289Z,14.60
2022-12-06T12:51:33.777Z,14.50
2022-12-06T12:54:26.822Z,14.60
2022-12-06T12:57:15.806Z,14.60
2022-12-06T13:00:07.426Z,14.50
2022-12-06T13:03:00.120Z,14.50
2022-12-06T13:05:51.873Z,14.50
2022-12-06T13:08:41.543Z,14.60
2022-12-06T13:11:31.538Z,14.50
2022-12-06T13:14:23.967Z,14.30
2022-12-06T13:17:18.351Z,14.20
2022-12-06T13:20:23.734Z,14.10
2022-12-06T13:23:15.673Z,14.00
2022-12-06T13:26:16.247Z,13.90
2022-12-06T13:29:18.001Z,13.90
2022-12-06T13:32:10.381Z,13.80
2022-12-06T13:35:03.762Z,13.60
2022-12-06T13:37:58.264Z,13.50
2022-12-06T13:40:51.737Z,13.30
2022-12-06T13:43:52.633Z,13.20
2022-12-06T13:46:41.766Z,13.00
2022-12-06T13:49:48.769Z,12.80
2022-12-06T13:53:05.428Z,12.60
2022-12-06T13:56:02.509Z,12.50
2022-12-06T13:58:55.159Z,12.40
2022-12-06T14:01:46.233Z,12.20
2022-12-06T14:04:38.069Z,12.20
2022-12-06T14:07:34.859Z,12.00
2022-12-06T14:10:25.280Z,11.90
2022-12-06T14:13:18.685Z,11.80
2022-12-06T14:16:09.918Z,12.00
2022-12-06T14:18:59.007Z,11.70
2022-12-06T14:21:55.776Z,11.70
2022-12-06T14:24:56.932Z,11.70
2022-12-06T14:27:49.603Z,11.70
2022-12-06T14:30:39.324Z,11.60
2022-12-06T14:33:28.562Z,11.60
2022-12-06T14:36:22.099Z,11.60
2022-12-06T14:39:19.529Z,11.60
2022-12-06T14:42:36.763Z,11.60
2022-12-06T14:45:27.317Z,11.60
2022-12-06T14:48:16.626Z,11.60
2022-12-06T14:51:05.017Z,11.60
2022-12-06T14:53:53.931Z,11.50
2022-12-06T14:56:46.290Z,11.50
2022-12-06T15:03:02.013Z,11.40
2022-12-06T15:05:57.469Z,11.30
2022-12-06T15:08:53.481Z,11.30
2022-12-06T15:12:02.322Z,11.30
2022-12-06T15:14:52.267Z,11.20
2022-12-06T15:17:42.493Z,11.20
2022-12-06T15:20:33.289Z,11.20
2022-12-06T15:23:36.113Z,11.10
2022-12-06T15:26:26.131Z,11.10
2022-12-06T15:29:16.545Z,11.10
2022-12-06T15:32:06.261Z,11.00
2022-12-06T15:34:57.369Z,11.00
2022-12-06T15:37:50.505Z,11.00
2022-12-06T15:40:43.513Z,11.00
2022-12-06T15:43:34.879Z,10.90
2022-12-06T15:46:26.020Z,10.90
2022-12-06T15:49:16.735Z,10.90
2022-12-06T15:52:05.862Z,10.80
2022-12-06T15:54:56.438Z,10.80
2022-12-06T15:57:45.539Z,10.80
2022-12-06T16:00:34.593Z,10.70
2022-12-06T16:03:24.675Z,10.70
2022-12-06T16:06:15.790Z,10.70
2022-12-06T16:09:05.219Z,10.70
2022-12-06T16:11:56.608Z,10.60
2022-12-06T16:14:45.691Z,10.60
2022-12-06T16:17:34.948Z,10.60
2022-12-06T16:20:32.999Z,10.50
2022-12-06T16:26:51.691Z,10.40
2022-12-06T16:29:42.731Z,10.40
2022-12-06T16:32:31.853Z,10.40
2022-12-06T20:01:09.339Z,9.30
2022-12-06T20:03:58.524Z,9.20
2022-12-06T20:06:48.036Z,9.20
2022-12-06T20:09:37.407Z,9.20
2022-12-06T20:12:28.341Z,9.20
2022-12-06T20:15:18.166Z,9.10
2022-12-06T20:18:09.666Z,9.20
2022-12-06T20:20:59.352Z,9.30
2022-12-06T20:23:48.607Z,9.30
2022-12-06T20:26:38.804Z,9.30
2022-12-06T20:29:30.807Z,9.50
2022-12-06T20:32:21.734Z,9.30
2022-12-06T20:35:11.118Z,9.30
2022-12-06T20:38:00.891Z,9.40
2022-12-06T20:40:50.077Z,9.40
2022-12-06T20:43:40.012Z,9.40
2022-12-06T20:46:32.811Z,9.30
2022-12-06T20:49:22.499Z,9.20
2022-12-06T20:52:13.338Z,9.20
2022-12-06T20:55:02.819Z,9.20
2022-12-06T20:57:52.216Z,9.20
2022-12-06T21:00:42.944Z,9.20
2022-12-06T21:03:33.888Z,9.20
2022-12-06T21:06:24.931Z,9.30
2022-12-06T21:09:14.693Z,9.30
2022-12-06T21:12:04.229Z,9.20
2022-12-06T21:14:54.667Z,9.10
2022-12-06T21:17:43.518Z,8.90
2022-12-06T21:20:39.635Z,8.90
2022-12-06T21:23:28.359Z,9.00
2022-12-06T21:26:17.982Z,9.10
2022-12-06T21:29:07.197Z,9.10
2022-12-06T21:31:56.524Z,9.30
2022-12-06T21:34:46.761Z,9.20
2022-12-06T21:37:38.583Z,9.00
2022-12-06T21:40:28.201Z,8.90
2022-12-06T21:43:17.719Z,8.70
2022-12-06T21:46:09.143Z,8.60
2022-12-06T21:49:00.122Z,8.70
2022-12-06T21:51:52.695Z,8.70
2022-12-06T21:54:46.046Z,8.80
2022-12-06T21:57:35.695Z,8.80
2022-12-06T22:00:26.166Z,8.60
2022-12-06T22:03:22.752Z,8.70
2022-12-06T22:06:14.171Z,8.80
2022-12-06T22:09:05.909Z,8.90
2022-12-06T22:11:56.926Z,9.10
2022-12-06T22:14:46.326Z,8.80
2022-12-06T22:17:35.925Z,8.50
2022-12-06T22:20:25.065Z,8.80
2022-12-06T22:23:17.544Z,8.80
2022-12-06T22:26:08.069Z,8.90
2022-12-06T22:28:59.764Z,8.90
2022-12-06T22:31:48.864Z,8.90
2022-12-06T22:34:39.210Z,9.00
2022-12-06T22:37:28.805Z,8.80
2022-12-06T22:40:18.619Z,8.90
2022-12-06T22:43:09.663Z,8.80
2022-12-06T22:46:05.770Z,8.80
2022-12-06T22:48:56.060Z,8.90
2022-12-06T22:51:45.902Z,8.90
2022-12-06T22:54:35.501Z,8.90
2022-12-06T22:57:25.040Z,8.80
2022-12-06T23:00:15.681Z,8.90
2022-12-06T23:03:06.655Z,8.90
2022-12-06T23:05:59.918Z,8.80
2022-12-06T23:08:49.877Z,8.80
2022-12-06T23:11:39.137Z,8.80
2022-12-06T23:14:28.872Z,8.70
2022-12-06T23:17:18.051Z,8.70
2022-12-06T23:20:11.346Z,8.80
2022-12-06T23:23:01.222Z,8.90
2022-12-06T23:25:51.286Z,9.00
2022-12-06T23:28:41.344Z,9.00
2022-12-06T23:31:32.570Z,9.10
2022-12-06T23:34:23.412Z,9.10
2022-12-06T23:37:14.195Z,9.00
2022-12-06T23:40:03.881Z,9.00
2022-12-06T23:42:53.582Z,9.00
2022-12-06T23:45:43.035Z,9.00
2022-12-06T23:48:32.278Z,9.00
2022-12-06T23:51:23.581Z,9.00
2022-12-06T23:54:15.910Z,8.80
2022-12-06T23:57:05.642Z,8.80
2022-12-06T23:59:55.156Z,8.90
